WetterOnline ( https://www.wetteronline.de )

Wetter aktuell Schönau im Schwarzwald

Aktuelles Wetter: Feldberg/Schwarzwald (1493m)

6-stündlich | Neueste Meldungen
Ortszeit Temperatur Wetter
Di, 31.01. 1:00 -5.3° C Nebel
Mo, 30.01. 19:00 -4.2° C Nebel
Mo, 30.01. 13:00 -6.5° C Nebel
Mo, 30.01. 7:00 -4.7° C bewölkt
Mo, 30.01. 1:00 -2.9° C wolkenlos
So, 29.01. 19:00 -3.0° C wolkig
So, 29.01. 13:00 -2.6° C wolkig
So, 29.01. 7:00 -8.4° C leicht bewölkt
Ortszeit Temperatur Wetter
Di, 31.01. 4:30 -5.7° C Nebel
Di, 31.01. 4:20 -5.7° C Nebel
Di, 31.01. 4:10 -5.6° C Nebel
Di, 31.01. 4:00 -5.7° C Nebel
Di, 31.01. 3:50 -5.7° C Nebel
Di, 31.01. 3:40 -5.6° C Nebel
Di, 31.01. 3:30 -5.6° C Nebel
Di, 31.01. 3:00 -5.7° C Nebel
Di, 31.01. 2:30 -5.5° C Nebel
Di, 31.01. 2:00 -5.4° C Nebel
Di, 31.01. 1:30 -5.3° C Nebel
Ortszeit Relative Feuchte Sichtweite
Di, 31.01. 1:00 94% <100 m
Mo, 30.01. 19:00 96% <100 m
Mo, 30.01. 13:00 94% <100 m
Mo, 30.01. 7:00 36% 60 km
Mo, 30.01. 1:00 14% 65 km
So, 29.01. 19:00 17% 60 km
So, 29.01. 13:00 26% >70 km
So, 29.01. 7:00 89% 65 km
Ortszeit Relative Feuchte Sichtweite
Di, 31.01. 4:30 94% <100 m
Di, 31.01. 4:20 94% -
Di, 31.01. 4:10 94% -
Di, 31.01. 4:00 94% <100 m
Di, 31.01. 3:50 94% -
Di, 31.01. 3:40 94% -
Di, 31.01. 3:30 95% <100 m
Di, 31.01. 3:00 94% 0.2 km
Di, 31.01. 2:30 95% <100 m
Di, 31.01. 2:00 95% <100 m
Di, 31.01. 1:30 94% <100 m
Ortszeit Niederschlagsmenge Niederschlagsart
Di, 31.01. 1:00 0.1 l/m2 in 6 Std. Schnee
Mo, 30.01. 19:00 0.1 l/m2 in 12 Std. Schnee
Mo, 30.01. 13:00 0.1 l/m2 in 6 Std. Schnee
Mo, 30.01. 7:00 0.0 l/m2 in 12 Std. -
Mo, 30.01. 1:00 0.0 l/m2 in 6 Std. -
So, 29.01. 19:00 0.1 l/m2 in 12 Std. -
So, 29.01. 13:00 0.1 l/m2 in 6 Std. Schnee
So, 29.01. 7:00 0.1 l/m2 in 12 Std. Schnee
Ortszeit Niederschlagsmenge Niederschlagsart
Di, 31.01. 4:30 0.0 l/m2 in 30 Min -
Di, 31.01. 4:20 keine Meldung -
Di, 31.01. 4:10 keine Meldung -
Di, 31.01. 4:00 0.0 l/m2 in 1 Std. -
Di, 31.01. 3:50 keine Meldung -
Di, 31.01. 3:40 keine Meldung -
Di, 31.01. 3:30 0.0 l/m2 in 30 Min -
Di, 31.01. 3:00 0.0 l/m2 in 1 Std. -
Di, 31.01. 2:30 0.0 l/m2 in 30 Min -
Di, 31.01. 2:00 0.0 l/m2 in 1 Std. -
Di, 31.01. 1:30 0.0 l/m2 in 30 Min -
Ortszeit Stärke Spitze Richtung
km/h Bft. km/h Grad Sektor
Di, 31.01. 1:00 22 4 48 330° NW
Mo, 30.01. 19:00 28 4 74 300° NW
Mo, 30.01. 13:00 41 6 67 220° SW
Mo, 30.01. 7:00 39 6 59 260° W
Mo, 30.01. 1:00 22 4 29 260° W
So, 29.01. 19:00 7 2 25 350° N
So, 29.01. 13:00 22 4 47 60° NO
So, 29.01. 7:00 41 6 56 70° O
Ortszeit Stärke Spitze Richtung
km/h Bft. km/h Grad Sektor
Di, 31.01. 4:30 20 4 28 310° NW
Di, 31.01. 4:20 20 4 - 310° NW
Di, 31.01. 4:10 22 4 - 310° NW
Di, 31.01. 4:00 18 3 32 300° NW
Di, 31.01. 3:50 18 3 - 300° NW
Di, 31.01. 3:40 18 3 - 300° NW
Di, 31.01. 3:30 14 3 32 310° NW
Di, 31.01. 3:00 17 3 28 300° NW
Di, 31.01. 2:30 17 3 24 320° NW
Di, 31.01. 2:00 17 3 31 320° NW
Di, 31.01. 1:30 22 4 32 330° NW
Ortszeit Untergrenze Bedeckung Gattung
total tief tief mittel hoch
Di, 31.01. 1:00 <30 m 8/8 0/8 - - -
Mo, 30.01. 19:00 <30 m 8/8 0/8 - - -
Mo, 30.01. 13:00 <30 m 8/8 0/8 - - -
Mo, 30.01. 7:00 2100 m 7/8 7/8 - - -
Mo, 30.01. 1:00 - 0/8 0/8 - - -
So, 29.01. 19:00 4200 m 6/8 5/8 - - -
So, 29.01. 13:00 5400 m 8/8 8/8 - - -
So, 29.01. 7:00 9000 m 3/8 0/8 - - -
Ortszeit Bedeckungsgrad in Achtel und Wolkenuntergrenze
Di, 31.01. 4:30 8(<30m)
Di, 31.01. 4:20 8(<30m)
Di, 31.01. 4:10 8
Di, 31.01. 4:00 8(<30m)
Di, 31.01. 3:50 8(<30m)
Di, 31.01. 3:40 8
Di, 31.01. 3:30 8(<30m)
Di, 31.01. 3:00 8(<30m)
Di, 31.01. 2:30 8(<30m)
Di, 31.01. 2:00 8(<30m)
Di, 31.01. 1:30 8(<30m)
Ortszeit Stationsdruck (hPa) Tendenz (hPa in 3 Std.)
Di, 31.01. 1:00 854 + 0,3
Mo, 30.01. 19:00 853 + 2,0
Mo, 30.01. 13:00 850 - 0,9
Mo, 30.01. 7:00 850 - 1,0
Mo, 30.01. 1:00 852 - 1,1
So, 29.01. 19:00 853 + 0,7
So, 29.01. 13:00 853 + 0,1
So, 29.01. 7:00 852 + 0,3
Ortszeit Stationsdruck (hPa) Tendenz (hPa in 3 Std.)
Di, 31.01. 4:30 854 - 0,2
Di, 31.01. 4:20 854 keine Meldung
Di, 31.01. 4:10 854 keine Meldung
Di, 31.01. 4:00 854 - 0,5
Di, 31.01. 3:50 854 keine Meldung
Di, 31.01. 3:40 854 keine Meldung
Di, 31.01. 3:30 854 - 0,8
Di, 31.01. 3:00 854 - 0,8
Di, 31.01. 2:30 854 - 0,6
Di, 31.01. 2:00 854 - 0,3
Di, 31.01. 1:30 854 + 0,1
Ortszeit Schneehöhe (cm)
Di, 31.01. 1:00 88
Mo, 30.01. 19:00 89
Mo, 30.01. 13:00 88
Mo, 30.01. 7:00 88
Mo, 30.01. 1:00 89
So, 29.01. 19:00 89
So, 29.01. 13:00 89
So, 29.01. 7:00 90
Ortszeit Schneehöhe (cm)
Di, 31.01. 4:30 88
Di, 31.01. 4:20 88
Di, 31.01. 4:10 88
Di, 31.01. 4:00 88
Di, 31.01. 3:50 88
Di, 31.01. 3:40 88
Di, 31.01. 3:30 88
Di, 31.01. 3:00 88
Di, 31.01. 2:30 88
Di, 31.01. 2:00 88
Di, 31.01. 1:30 88
Link zu dieser Seite / Seite empfehlen

Das Wetter in ...